ENNM/OSY METAR and TAF weather

Enter ICAO airport designator
Station Type Date Time Source
ENNM METAR 2022/06/28 09:20 UTC NOAA

ENNM 280920Z 14007KT 100V240 CAVOK 28/16 Q1013


Station Type Date Time Source
ENNM Decoded METAR 2022/06/28 09:20 UTC NOAA

Namsos Lufthavn, Norway (ENNM) 64-28N 011-35E 2M
Jun 28, 2022 - 05:20 AM EDT / 2022.06.28 0920 UTC
Wind: from the SE (140 degrees) at 8 MPH (7 KT) (direction variable):0
Visibility: greater than 7 mile(s):0
Temperature: 82 F (28 C)
Dew Point: 60 F (16 C)
Relative Humidity: 48%
Pressure (altimeter): 29.91 in. Hg (1013 hPa)
ob: ENNM 280920Z 14007KT 100V240 CAVOK 28/16 Q1013
cycle: 9

Station Type Date Time Source
ENNM TAF UTC NOAA

Error!

Example: see airport list